createdAt,value
2023-05-11T00:02:12.553Z,13.29
2023-05-11T00:04:57.837Z,13.31
2023-05-11T00:07:43.038Z,13.26
2023-05-11T00:10:29.367Z,13.21
2023-05-11T00:13:14.744Z,13.20
2023-05-11T00:15:59.780Z,13.03
2023-05-11T00:18:45.134Z,13.06
2023-05-11T00:21:30.731Z,13.02
2023-05-11T00:24:16.061Z,13.02
2023-05-11T00:27:00.997Z,13.02
2023-05-11T00:29:46.401Z,13.05
2023-05-11T00:32:31.750Z,13.11
2023-05-11T00:35:17.122Z,13.14
2023-05-11T00:38:02.184Z,13.08
2023-05-11T00:40:48.974Z,13.01
2023-05-11T00:43:34.319Z,13.02
2023-05-11T00:46:20.512Z,13.13
2023-05-11T00:49:05.850Z,13.04
2023-05-11T00:51:51.305Z,13.05
2023-05-11T00:54:36.685Z,13.17
2023-05-11T00:57:21.759Z,13.20
2023-05-11T01:00:07.697Z,13.15
2023-05-11T01:02:53.750Z,13.23
2023-05-11T01:05:46.999Z,13.26
2023-05-11T01:08:44.830Z,13.09
2023-05-11T01:11:51.321Z,12.99
2023-05-11T01:14:45.062Z,12.93
2023-05-11T01:17:54.847Z,12.89
2023-05-11T01:20:44.120Z,12.99
2023-05-11T01:23:54.097Z,13.02
2023-05-11T01:27:05.838Z,12.98
2023-05-11T01:30:29.155Z,12.94
2023-05-11T01:33:16.181Z,13.04
2023-05-11T01:36:05.287Z,13.07
2023-05-11T01:38:51.640Z,13.04
2023-05-11T01:41:40.233Z,12.95
2023-05-11T01:44:30.440Z,12.99
2023-05-11T01:47:17.084Z,13.05
2023-05-11T01:50:06.257Z,13.08
2023-05-11T01:52:52.084Z,12.98
2023-05-11T01:55:39.789Z,12.99
2023-05-11T01:58:27.155Z,13.06
2023-05-11T02:01:15.621Z,13.06
2023-05-11T02:04:03.471Z,13.03
2023-05-11T02:06:50.887Z,13.15
2023-05-11T02:09:38.020Z,13.18
2023-05-11T02:12:25.085Z,13.16
2023-05-11T02:15:11.602Z,13.15
2023-05-11T02:17:57.609Z,13.10
2023-05-11T02:20:46.049Z,13.06
2023-05-11T02:23:33.421Z,13.05
2023-05-11T02:26:18.484Z,12.93
2023-05-11T02:29:03.855Z,12.99
2023-05-11T02:31:52.734Z,13.10
2023-05-11T02:34:43.620Z,13.11
2023-05-11T02:37:30.855Z,13.01
2023-05-11T02:40:22.618Z,12.78
2023-05-11T02:43:11.227Z,12.75
2023-05-11T02:46:01.925Z,12.74
2023-05-11T02:48:51.862Z,12.75
2023-05-11T02:51:41.173Z,12.78
2023-05-11T02:54:27.012Z,12.69
2023-05-11T02:57:12.756Z,12.53
2023-05-11T02:59:58.411Z,12.49
2023-05-11T03:02:43.455Z,12.57
2023-05-11T03:05:28.811Z,12.57
2023-05-11T03:08:14.060Z,12.62
2023-05-11T03:10:59.255Z,12.69
2023-05-11T03:13:45.626Z,12.65
2023-05-11T03:16:32.233Z,12.54
2023-05-11T03:19:17.950Z,12.51
2023-05-11T03:22:04.336Z,12.53
2023-05-11T03:24:51.274Z,12.50
2023-05-11T03:27:37.026Z,12.57
2023-05-11T03:30:23.266Z,12.45
2023-05-11T03:33:09.249Z,12.53
2023-05-11T03:35:55.186Z,12.54
2023-05-11T03:38:40.776Z,12.64
2023-05-11T03:41:27.933Z,12.62
2023-05-11T03:44:14.797Z,12.50
2023-05-11T03:47:00.931Z,12.48
2023-05-11T03:49:46.517Z,12.49
2023-05-11T03:52:31.962Z,12.48
2023-05-11T03:55:17.320Z,12.46
2023-05-11T03:58:06.733Z,12.45
2023-05-11T04:00:52.450Z,12.44
2023-05-11T04:03:52.607Z,12.72
2023-05-11T04:06:38.282Z,12.62
2023-05-11T04:09:23.634Z,12.51
2023-05-11T04:12:08.589Z,12.48
2023-05-11T04:14:53.997Z,12.49
2023-05-11T04:17:39.252Z,12.50
2023-05-11T04:20:24.533Z,12.54
2023-05-11T04:23:10.518Z,12.50
2023-05-11T04:25:56.282Z,12.48
2023-05-11T04:28:41.385Z,12.63
2023-05-11T04:31:26.869Z,12.74
2023-05-11T04:34:12.030Z,12.81
2023-05-11T04:36:57.047Z,12.84
2023-05-11T04:39:41.909Z,12.89
2023-05-11T04:42:26.712Z,12.77
2023-05-11T04:45:11.808Z,12.91
2023-05-11T04:47:56.734Z,12.90
2023-05-11T04:50:41.677Z,12.91
2023-05-11T04:53:26.494Z,12.89
2023-05-11T04:56:11.826Z,12.85
2023-05-11T04:58:57.030Z,12.85
2023-05-11T05:01:42.124Z,13.02
2023-05-11T05:04:27.421Z,13.06
2023-05-11T05:07:12.962Z,13.09
2023-05-11T05:09:58.227Z,13.14
2023-05-11T05:12:43.098Z,13.13
2023-05-11T05:15:28.387Z,13.20
2023-05-11T05:18:14.017Z,13.26
2023-05-11T05:20:59.342Z,13.24
2023-05-11T05:23:44.392Z,13.31
2023-05-11T05:26:29.853Z,13.32
2023-05-11T05:29:15.221Z,13.29
2023-05-11T05:32:00.016Z,13.15
2023-05-11T05:34:45.476Z,13.09
2023-05-11T05:37:30.749Z,13.19
2023-05-11T05:40:15.581Z,13.19
2023-05-11T05:43:00.949Z,13.24
2023-05-11T05:45:45.787Z,13.23
2023-05-11T05:48:31.130Z,13.14
2023-05-11T05:51:16.487Z,13.19
2023-05-11T05:54:01.889Z,13.24
2023-05-11T05:56:47.322Z,13.24
2023-05-11T05:59:32.596Z,13.28
2023-05-11T06:02:17.524Z,13.25
2023-05-11T06:05:02.365Z,13.24
2023-05-11T06:07:58.131Z,13.31
2023-05-11T06:10:52.956Z,13.33
2023-05-11T06:13:37.828Z,13.45
2023-05-11T06:16:22.562Z,13.35
2023-05-11T06:19:08.309Z,13.42
2023-05-11T06:21:53.507Z,13.52
2023-05-11T06:24:38.509Z,13.61
2023-05-11T06:27:23.645Z,13.64
2023-05-11T06:30:09.546Z,13.67
2023-05-11T06:32:55.068Z,13.73
2023-05-11T06:35:40.253Z,13.64
2023-05-11T06:38:25.473Z,13.73
2023-05-11T06:41:10.435Z,13.65
2023-05-11T06:43:55.846Z,13.73
2023-05-11T06:46:41.322Z,13.86
2023-05-11T06:49:26.866Z,13.94
2023-05-11T06:52:12.088Z,13.98
2023-05-11T06:54:57.543Z,13.91
2023-05-11T06:57:42.868Z,13.75
2023-05-11T07:00:28.252Z,13.83
2023-05-11T07:03:13.241Z,13.82
2023-05-11T07:05:58.373Z,13.88
2023-05-11T07:08:43.800Z,13.93
2023-05-11T07:11:30.899Z,13.97
2023-05-11T07:14:16.060Z,13.95
2023-05-11T07:17:01.059Z,13.96
2023-05-11T07:19:46.338Z,14.01
2023-05-11T07:22:31.174Z,13.99
2023-05-11T07:25:15.879Z,14.09
2023-05-11T07:28:01.295Z,14.08
2023-05-11T07:30:47.260Z,14.15
2023-05-11T07:33:32.336Z,14.18
2023-05-11T07:36:17.968Z,14.29
2023-05-11T07:39:03.396Z,14.23
2023-05-11T07:41:48.529Z,14.35
2023-05-11T07:44:33.421Z,14.39
2023-05-11T07:47:18.307Z,14.41
2023-05-11T07:50:03.972Z,14.31
2023-05-11T07:52:49.510Z,14.36
2023-05-11T07:55:34.578Z,14.28
2023-05-11T07:58:19.894Z,14.35
2023-05-11T08:01:05.331Z,14.48
2023-05-11T08:03:50.814Z,14.43
2023-05-11T08:06:35.849Z,14.55
2023-05-11T08:09:20.902Z,14.64
2023-05-11T08:12:06.392Z,14.69
2023-05-11T08:14:51.442Z,14.79
2023-05-11T08:17:36.950Z,14.80
2023-05-11T08:20:22.364Z,14.79
2023-05-11T08:23:08.865Z,14.83
2023-05-11T08:25:55.392Z,14.82
2023-05-11T08:28:40.434Z,14.67
2023-05-11T08:31:25.231Z,14.68
2023-05-11T08:34:18.676Z,14.96
2023-05-11T08:37:04.979Z,15.06
2023-05-11T08:39:50.502Z,15.08
2023-05-11T08:42:39.861Z,14.95
2023-05-11T08:45:25.871Z,14.73
2023-05-11T08:48:11.503Z,14.78
2023-05-11T08:50:56.482Z,14.95
2023-05-11T08:53:41.732Z,15.07
2023-05-11T08:56:29.650Z,15.21
2023-05-11T08:59:15.425Z,15.31
2023-05-11T09:02:00.976Z,15.34
2023-05-11T09:04:48.311Z,15.36
2023-05-11T09:07:38.730Z,15.47
2023-05-11T09:10:24.213Z,15.65
2023-05-11T09:13:09.729Z,15.63
2023-05-11T09:15:54.797Z,15.71
2023-05-11T09:18:53.656Z,15.51
2023-05-11T09:21:39.024Z,15.47
2023-05-11T09:24:24.734Z,15.60
2023-05-11T09:27:10.273Z,15.62
2023-05-11T09:29:55.537Z,15.68
2023-05-11T09:32:51.200Z,15.86
2023-05-11T09:35:36.321Z,15.62
2023-05-11T09:38:25.114Z,15.75
2023-05-11T09:41:10.876Z,15.65
2023-05-11T09:44:11.103Z,15.75
2023-05-11T09:47:14.016Z,15.66
2023-05-11T09:49:59.258Z,15.74
2023-05-11T09:52:50.902Z,15.73
2023-05-11T09:55:35.983Z,15.81
2023-05-11T09:58:21.753Z,15.74
2023-05-11T10:01:07.138Z,15.81
2023-05-11T10:03:56.369Z,15.92
2023-05-11T10:06:52.314Z,15.93
2023-05-11T10:09:38.245Z,15.94
2023-05-11T10:12:25.580Z,15.95
2023-05-11T10:15:11.302Z,15.99
2023-05-11T10:17:58.879Z,16.06
2023-05-11T10:20:47.624Z,15.90
2023-05-11T10:23:33.253Z,15.98
2023-05-11T10:26:19.103Z,16.00
2023-05-11T10:29:05.015Z,16.03
2023-05-11T10:31:51.320Z,16.04
2023-05-11T10:34:36.596Z,16.11
2023-05-11T10:37:22.445Z,16.17
2023-05-11T10:40:09.118Z,16.16
2023-05-11T10:43:22.354Z,16.05
2023-05-11T10:46:25.062Z,15.97
2023-05-11T10:49:47.818Z,15.74
2023-05-11T10:53:04.514Z,15.35
2023-05-11T10:55:56.002Z,14.76
2023-05-11T10:58:59.223Z,14.73
2023-05-11T11:01:46.386Z,14.84
2023-05-11T11:04:49.598Z,14.85
2023-05-11T11:08:00.985Z,14.88
2023-05-11T11:10:45.868Z,14.77
2023-05-11T11:13:57.857Z,14.69
2023-05-11T11:17:14.426Z,14.67
2023-05-11T11:20:04.126Z,14.68
2023-05-11T11:22:49.171Z,14.71
2023-05-11T11:25:51.944Z,14.69
2023-05-11T11:28:55.618Z,14.80
2023-05-11T11:31:41.473Z,14.64
2023-05-11T11:34:29.605Z,14.39
2023-05-11T11:37:16.365Z,14.54
2023-05-11T11:40:09.403Z,14.73
2023-05-11T11:43:10.626Z,14.86
2023-05-11T11:46:01.515Z,14.86
2023-05-11T11:48:46.831Z,14.88
2023-05-11T11:51:35.955Z,14.85
2023-05-11T11:54:37.231Z,14.70
2023-05-11T11:57:34.787Z,14.86
2023-05-11T12:00:20.964Z,14.84
2023-05-11T12:03:07.683Z,14.96
2023-05-11T12:05:58.373Z,15.02
2023-05-11T12:08:43.513Z,14.86
2023-05-11T12:11:29.595Z,14.60
2023-05-11T12:14:16.490Z,14.71
2023-05-11T12:17:03.651Z,14.67
2023-05-11T12:19:48.699Z,14.73
2023-05-11T12:22:36.576Z,14.83
2023-05-11T12:25:22.174Z,14.80
2023-05-11T12:28:07.495Z,14.96
2023-05-11T12:30:58.474Z,15.05
2023-05-11T12:33:50.156Z,14.94
2023-05-11T12:36:36.205Z,15.02
2023-05-11T12:39:26.172Z,15.31
2023-05-11T12:42:18.589Z,15.55
2023-05-11T12:45:05.545Z,15.32
2023-05-11T12:47:52.627Z,15.08
2023-05-11T12:50:42.788Z,15.12
2023-05-11T12:53:35.572Z,15.29
2023-05-11T12:56:20.894Z,15.11
2023-05-11T12:59:30.420Z,15.09
2023-05-11T13:02:20.620Z,15.12
2023-05-11T13:05:15.508Z,14.87
2023-05-11T13:08:05.194Z,14.64
2023-05-11T13:10:50.527Z,14.74
2023-05-11T13:13:35.900Z,14.86
2023-05-11T13:16:25.382Z,15.08
2023-05-11T13:19:10.422Z,14.98
2023-05-11T13:21:55.977Z,14.85
2023-05-11T13:24:41.321Z,14.79
2023-05-11T13:27:26.562Z,15.07
2023-05-11T13:30:12.153Z,15.16
2023-05-11T13:32:57.447Z,15.07
2023-05-11T13:35:44.095Z,15.05
2023-05-11T13:38:29.606Z,15.00
2023-05-11T13:41:15.066Z,15.13
2023-05-11T13:44:00.459Z,15.13
2023-05-11T13:46:45.629Z,15.11
2023-05-11T13:49:31.110Z,15.04
2023-05-11T13:52:16.664Z,15.11
2023-05-11T13:55:01.902Z,14.78
2023-05-11T13:57:46.897Z,14.72
2023-05-11T14:00:32.395Z,14.86
2023-05-11T14:03:17.634Z,14.90
2023-05-11T14:06:03.058Z,14.94
2023-05-11T14:08:48.350Z,14.82
2023-05-11T14:11:33.876Z,14.93
2023-05-11T14:14:19.562Z,15.16
2023-05-11T14:17:05.785Z,15.15
2023-05-11T14:19:50.864Z,15.27
2023-05-11T14:22:35.812Z,15.11
2023-05-11T14:25:21.356Z,15.09
2023-05-11T14:28:06.670Z,14.89
2023-05-11T14:30:51.606Z,15.08
2023-05-11T14:33:36.855Z,15.27
2023-05-11T14:36:22.701Z,15.35
2023-05-11T14:39:07.910Z,15.28
2023-05-11T14:41:53.171Z,15.32
2023-05-11T14:44:38.093Z,15.37
2023-05-11T14:47:23.085Z,15.22
2023-05-11T14:50:09.393Z,15.28
2023-05-11T14:52:54.900Z,15.39
2023-05-11T14:55:40.240Z,15.44
2023-05-11T14:58:25.601Z,15.53
2023-05-11T15:01:10.455Z,15.52
2023-05-11T15:03:56.000Z,15.46
2023-05-11T15:06:41.194Z,15.58
2023-05-11T15:09:26.602Z,15.52
2023-05-11T15:12:13.188Z,15.55
2023-05-11T15:14:58.370Z,15.55
2023-05-11T15:17:43.456Z,15.51
2023-05-11T15:20:28.970Z,15.45
2023-05-11T15:23:14.147Z,15.55
2023-05-11T15:26:00.812Z,15.50
2023-05-11T15:28:45.950Z,15.62
2023-05-11T15:31:31.002Z,15.57
2023-05-11T15:34:16.145Z,15.50
2023-05-11T15:37:01.018Z,15.34
2023-05-11T15:39:53.599Z,15.33
2023-05-11T15:42:39.059Z,15.51
2023-05-11T15:45:25.234Z,15.45
2023-05-11T15:48:10.665Z,15.46
2023-05-11T15:50:55.671Z,15.41
2023-05-11T15:53:40.504Z,15.48
2023-05-11T15:56:25.424Z,15.59
2023-05-11T15:59:10.571Z,15.59
2023-05-11T16:01:55.917Z,15.66
2023-05-11T16:04:41.367Z,15.47
2023-05-11T16:07:27.003Z,15.28
2023-05-11T16:10:12.022Z,15.31
2023-05-11T16:12:58.801Z,15.32
2023-05-11T16:15:44.233Z,15.27
2023-05-11T16:18:29.714Z,15.21
2023-05-11T16:21:15.097Z,15.22
2023-05-11T16:24:00.538Z,15.23
2023-05-11T16:26:45.967Z,15.26
2023-05-11T16:29:31.363Z,15.27
2023-05-11T16:32:16.696Z,15.22
2023-05-11T16:35:01.634Z,15.11
2023-05-11T16:37:47.199Z,15.12
2023-05-11T16:40:32.553Z,15.16
2023-05-11T16:43:17.837Z,14.92
2023-05-11T16:46:03.584Z,15.05
2023-05-11T16:48:48.836Z,14.80
2023-05-11T16:51:33.973Z,14.93
2023-05-11T16:54:20.161Z,14.99
2023-05-11T16:57:05.735Z,15.12
2023-05-11T16:59:51.409Z,15.04
2023-05-11T17:02:36.658Z,14.86
2023-05-11T17:05:22.418Z,14.90
2023-05-11T17:08:08.244Z,14.65
2023-05-11T17:10:53.323Z,14.77
2023-05-11T17:13:38.908Z,14.67
2023-05-11T17:16:24.234Z,14.69
2023-05-11T17:19:09.712Z,14.67
2023-05-11T17:21:55.056Z,14.72
2023-05-11T17:24:40.229Z,14.63
2023-05-11T17:27:25.976Z,14.62
2023-05-11T17:30:12.429Z,14.38
2023-05-11T17:32:57.826Z,14.43
2023-05-11T17:35:43.342Z,14.45
2023-05-11T17:38:28.461Z,14.61
2023-05-11T17:41:13.889Z,14.56
2023-05-11T17:43:59.395Z,14.67
2023-05-11T17:46:44.638Z,14.63
2023-05-11T17:49:30.051Z,14.67
2023-05-11T17:52:15.850Z,14.52
2023-05-11T17:55:00.899Z,14.57
2023-05-11T17:57:46.215Z,14.32
2023-05-11T18:00:31.556Z,14.17
2023-05-11T18:03:17.151Z,14.05
2023-05-11T18:06:02.499Z,14.32
2023-05-11T18:08:47.707Z,14.20
2023-05-11T18:11:33.063Z,14.26
2023-05-11T18:14:17.984Z,14.28
2023-05-11T18:17:03.451Z,14.28
2023-05-11T18:19:48.740Z,14.17
2023-05-11T18:22:34.259Z,14.25
2023-05-11T18:25:19.394Z,14.28
2023-05-11T18:28:04.376Z,14.25
2023-05-11T18:30:49.560Z,14.28
2023-05-11T18:33:34.477Z,14.27
2023-05-11T18:36:20.249Z,14.18
2023-05-11T18:39:05.216Z,14.28
2023-05-11T18:41:50.548Z,14.02
2023-05-11T18:44:35.914Z,14.07
2023-05-11T18:47:20.889Z,14.13
2023-05-11T18:50:06.657Z,14.07
2023-05-11T18:52:52.339Z,14.02
2023-05-11T18:55:51.886Z,14.03
2023-05-11T18:58:38.414Z,13.98
2023-05-11T19:01:30.302Z,14.07
2023-05-11T19:04:18.823Z,14.04
2023-05-11T19:07:04.198Z,14.00
2023-05-11T19:09:49.634Z,14.04
2023-05-11T19:12:34.971Z,14.10
2023-05-11T19:15:19.979Z,14.02
2023-05-11T19:18:05.697Z,14.09
2023-05-11T19:20:52.148Z,14.03
2023-05-11T19:23:37.189Z,13.96
2023-05-11T19:26:22.336Z,13.95
2023-05-11T19:29:07.971Z,14.04
2023-05-11T19:31:53.496Z,14.01
2023-05-11T19:34:38.739Z,14.06
2023-05-11T19:37:24.070Z,13.97
2023-05-11T19:40:37.287Z,13.97
2023-05-11T19:43:15.005Z,14.04
2023-05-11T19:46:03.273Z,13.98
2023-05-11T19:48:48.353Z,14.01
2023-05-11T19:51:33.733Z,13.95
2023-05-11T19:54:18.932Z,14.05
2023-05-11T19:57:04.226Z,14.05
2023-05-11T19:59:49.414Z,14.01
2023-05-11T20:02:35.289Z,14.04
2023-05-11T20:05:20.774Z,14.15
2023-05-11T20:08:05.872Z,14.05
2023-05-11T20:10:51.185Z,13.97
2023-05-11T20:13:36.585Z,13.95
2023-05-11T20:16:22.083Z,13.96
2023-05-11T20:19:07.400Z,14.07
2023-05-11T20:21:52.781Z,13.96
2023-05-11T20:24:37.553Z,13.99
2023-05-11T20:27:22.679Z,13.96
2023-05-11T20:30:08.851Z,13.93
2023-05-11T20:35:42.600Z,13.86
2023-05-11T20:38:27.652Z,13.84
2023-05-11T20:41:12.655Z,13.78
2023-05-11T20:43:57.812Z,13.80
2023-05-11T20:46:43.224Z,13.81
2023-05-11T20:49:38.082Z,13.86
2023-05-11T20:52:23.749Z,13.77
2023-05-11T20:55:09.139Z,13.80
2023-05-11T20:57:54.030Z,13.66
2023-05-11T21:00:39.762Z,13.75
2023-05-11T21:03:26.095Z,13.85
2023-05-11T21:06:11.222Z,13.73
2023-05-11T21:08:56.030Z,13.74
2023-05-11T21:11:41.436Z,13.78
2023-05-11T21:14:26.811Z,13.71
2023-05-11T21:17:11.966Z,13.79
2023-05-11T21:19:57.305Z,13.71
2023-05-11T21:22:42.511Z,13.74
2023-05-11T21:25:27.529Z,13.75
2023-05-11T21:28:12.667Z,13.80
2023-05-11T21:30:58.127Z,13.76
2023-05-11T21:33:43.525Z,13.80
2023-05-11T21:36:28.403Z,13.65
2023-05-11T21:39:13.453Z,13.73
2023-05-11T21:41:58.456Z,13.81
2023-05-11T21:44:43.839Z,13.72
2023-05-11T21:47:28.978Z,13.73
2023-05-11T21:50:14.355Z,13.81
2023-05-11T21:52:59.627Z,13.71
2023-05-11T21:55:44.378Z,13.73
2023-05-11T21:58:29.795Z,13.60
2023-05-11T22:01:14.625Z,13.67
2023-05-11T22:04:00.175Z,13.73
2023-05-11T22:06:45.329Z,13.79
2023-05-11T22:09:30.078Z,13.71
2023-05-11T22:12:14.987Z,13.71
2023-05-11T22:15:00.454Z,13.77
2023-05-11T22:17:45.798Z,13.68
2023-05-11T22:20:30.963Z,13.72
2023-05-11T22:23:15.942Z,13.47
2023-05-11T22:26:01.171Z,13.54
2023-05-11T22:28:46.438Z,13.56
2023-05-11T22:31:31.839Z,13.64
2023-05-11T22:34:19.566Z,13.55
2023-05-11T22:37:04.892Z,13.50
2023-05-11T22:39:50.052Z,13.49
2023-05-11T22:42:35.651Z,13.44
2023-05-11T22:45:20.976Z,13.33
2023-05-11T22:48:06.584Z,13.41
2023-05-11T22:50:51.565Z,13.28
2023-05-11T22:53:36.419Z,13.27
2023-05-11T22:56:21.409Z,13.31
2023-05-11T22:59:06.179Z,13.24
2023-05-11T23:01:51.108Z,13.23
2023-05-11T23:04:36.450Z,13.27
2023-05-11T23:07:21.340Z,13.33
2023-05-11T23:10:06.699Z,13.27
2023-05-11T23:12:51.714Z,13.22
2023-05-11T23:15:37.190Z,13.16
2023-05-11T23:18:22.846Z,13.21
2023-05-11T23:21:08.289Z,13.18
2023-05-11T23:23:53.762Z,13.16
2023-05-11T23:26:38.798Z,12.98
2023-05-11T23:29:24.496Z,13.12
2023-05-11T23:32:09.604Z,13.11
2023-05-11T23:34:54.495Z,13.15
2023-05-11T23:37:39.316Z,13.15
2023-05-11T23:40:25.123Z,12.99
2023-05-11T23:43:10.703Z,12.91
2023-05-11T23:45:55.563Z,12.99
2023-05-11T23:48:40.975Z,12.98
2023-05-11T23:51:26.208Z,13.01
2023-05-11T23:54:11.608Z,12.99
2023-05-11T23:56:57.057Z,13.06
2023-05-11T23:59:42.428Z,13.02
